METAR AND TAF INFORMATION
METAR FOR ESNX
ADDS - METARS form results

(1048 UTC 21 March 2019)
Data provider http://aviationweather.gov/metar/data/
 
METAR text: ESNX 211020Z 14012KT 4500 -SN BKN008 M00/M01 Q0998
Conditions at: ESNX (ARVIDSJAUR , SE) observed 1020 UTC 21 March 2019
Temperature: 0.0°C (32°F)
Dewpoint: -1.0°C (30°F) [RH = 93%]
Pressure (altimeter): 29.47 inches Hg (998.0 mb)
Winds: from the SE (140 degrees) at 14 MPH (12 knots; 6.2 m/s)
Visibility: 2.80 miles (4.51 km)
Ceiling: 800 feet AGL
Clouds: broken clouds at 800 feet AGL
Weather: -SN  (light snow)

METAR text: ESNX 210950Z 13011KT 1700 SN VV007 M00/M01 Q0999
Conditions at: ESNX (ARVIDSJAUR , SE) observed 0950 UTC 21 March 2019
Temperature: 0.0°C (32°F)
Dewpoint: -1.0°C (30°F) [RH = 93%]
Pressure (altimeter): 29.50 inches Hg (999.0 mb)
Winds: from the SE (130 degrees) at 13 MPH (11 knots; 5.7 m/s)
Visibility: 1.06 miles (1.71 km)
Ceiling: indefinite ceiling with vertical visibility of 700 feet AGL
Clouds: obscured sky
Weather: SN  (moderate snow)

Forecast for: AMD
Text: TAF AMD ESNX 210935Z 2109/2118 18006KT 5000 -SN BKN030
Forecast period: 0900 to 1000 UTC 21 March 2019
Forecast type: FROM: standard forecast or significant change
Winds: from the S (180 degrees) at 7 MPH (6 knots; 3.1 m/s)
Visibility: 3 miles (5 km)
Ceiling: 3000 feet AGL
Clouds: broken clouds at 3000 feet AGL
Weather: -SN  (light snow)
Text: TEMPO 2109/2114 1600 SN VV008
Forecast period: 0900 to 1400 UTC 21 March 2019
Forecast type: TEMPORARY: The following changes expected for less than half the time period
Visibility: 0.99 miles (1.59 km)
Ceiling: indefinite ceiling with vertical visibility of 800 feet AGL
Clouds: obscured sky
Weather: SN  (moderate snow)
Text: BECMG 2110/2112 25020G35KT
Forecast period: 1000 to 1800 UTC 21 March 2019
Forecast type: BECOMING: Conditions expected to become as follows by 1200 UTC 21 March 2019
Winds: from the WSW (250 degrees) at 23 MPH (20 knots; 10.3 m/s)
gusting to 40 MPH (35 knots; 18.0 m/s)
Visibility: 3 miles (5 km)
Ceiling: 3000 feet AGL
Clouds: broken clouds at 3000 feet AGL
Weather: -SN  (light snow)

 AIRPORT MAP

 RUNWAY INFORMATION
Runway 12 Runway length 8201 ft Runway width 148 ft
Runway elevation 1241 ft Runway displaced threshold 0 ft Runway heading 128
Runway 30 Runway length 8201 ft Runway width 148 ft
Runway elevation 1240 ft Runway displaced threshold 0 ft Runway heading 308

 AIRPORT FREQUENCIES
Type AFIS Name AFIS Frequency 123 MHZ
Type TWR Name TWR Frequency 123 MHZ

 AIRPORT NEAR NAVIGATION AIDS
Type NDB Name Arvidsjaur Frequency 381 KHZ



©2017-2018 BlueSkies Virtual